sensor_id;sensor_type;location;lat;lon;timestamp;P1;durP1;ratioP1;P2;durP2;ratioP2
37973;SDS011;23796;51.458;7.000;2022-12-18T00:01:42;37.00;;;26.52;;
37973;SDS011;23796;51.458;7.000;2022-12-18T00:04:15;45.28;;;30.42;;
37973;SDS011;23796;51.458;7.000;2022-12-18T00:06:46;44.40;;;30.15;;
37973;SDS011;23796;51.458;7.000;2022-12-18T00:09:13;45.85;;;30.58;;
37973;SDS011;23796;51.458;7.000;2022-12-18T00:11:41;48.53;;;31.20;;
37973;SDS011;23796;51.458;7.000;2022-12-18T00:14:08;46.35;;;30.48;;
37973;SDS011;23796;51.458;7.000;2022-12-18T00:16:36;45.10;;;29.08;;
37973;SDS011;23796;51.458;7.000;2022-12-18T00:19:02;48.55;;;32.03;;
37973;SDS011;23796;51.458;7.000;2022-12-18T00:21:29;50.90;;;31.02;;
37973;SDS011;23796;51.458;7.000;2022-12-18T00:23:58;41.63;;;29.03;;
37973;SDS011;23796;51.458;7.000;2022-12-18T00:26:26;41.65;;;28.90;;
37973;SDS011;23796;51.458;7.000;2022-12-18T00:28:54;42.53;;;28.45;;
37973;SDS011;23796;51.458;7.000;2022-12-18T00:31:21;44.78;;;29.48;;
37973;SDS011;23796;51.458;7.000;2022-12-18T00:33:53;39.97;;;27.25;;
37973;SDS011;23796;51.458;7.000;2022-12-18T00:36:21;46.43;;;30.37;;
37973;SDS011;23796;51.458;7.000;2022-12-18T00:38:49;47.50;;;30.25;;
37973;SDS011;23796;51.458;7.000;2022-12-18T00:41:20;46.80;;;29.70;;
37973;SDS011;23796;51.458;7.000;2022-12-18T00:44:08;44.17;;;28.10;;
37973;SDS011;23796;51.458;7.000;2022-12-18T00:46:39;44.88;;;29.20;;
37973;SDS011;23796;51.458;7.000;2022-12-18T00:49:05;40.65;;;27.83;;
37973;SDS011;23796;51.458;7.000;2022-12-18T00:51:31;43.80;;;29.08;;
37973;SDS011;23796;51.458;7.000;2022-12-18T00:53:59;43.97;;;28.80;;
37973;SDS011;23796;51.458;7.000;2022-12-18T00:56:25;44.60;;;29.17;;
37973;SDS011;23796;51.458;7.000;2022-12-18T00:58:50;41.75;;;28.38;;
37973;SDS011;23796;51.458;7.000;2022-12-18T01:01:18;44.30;;;29.85;;
37973;SDS011;23796;51.458;7.000;2022-12-18T01:03:44;42.70;;;28.17;;
37973;SDS011;23796;51.458;7.000;2022-12-18T01:06:12;43.05;;;29.30;;
37973;SDS011;23796;51.458;7.000;2022-12-18T01:08:38;44.65;;;30.23;;
37973;SDS011;23796;51.458;7.000;2022-12-18T01:11:11;47.97;;;29.67;;
37973;SDS011;23796;51.458;7.000;2022-12-18T01:13:39;48.30;;;31.17;;
37973;SDS011;23796;51.458;7.000;2022-12-18T01:16:07;45.00;;;30.15;;
37973;SDS011;23796;51.458;7.000;2022-12-18T01:18:33;45.78;;;30.42;;
37973;SDS011;23796;51.458;7.000;2022-12-18T01:20:59;49.72;;;32.20;;
37973;SDS011;23796;51.458;7.000;2022-12-18T01:23:27;46.47;;;31.33;;
37973;SDS011;23796;51.458;7.000;2022-12-18T01:25:55;45.17;;;29.40;;
37973;SDS011;23796;51.458;7.000;2022-12-18T01:28:23;45.25;;;29.17;;
37973;SDS011;23796;51.458;7.000;2022-12-18T01:30:51;43.70;;;28.23;;
37973;SDS011;23796;51.458;7.000;2022-12-18T01:33:17;46.20;;;30.70;;
37973;SDS011;23796;51.458;7.000;2022-12-18T01:35:42;45.78;;;29.63;;
37973;SDS011;23796;51.458;7.000;2022-12-18T01:38:08;43.33;;;29.48;;
37973;SDS011;23796;51.458;7.000;2022-12-18T01:40:34;42.97;;;31.00;;
37973;SDS011;23796;51.458;7.000;2022-12-18T01:43:00;50.53;;;29.40;;
37973;SDS011;23796;51.458;7.000;2022-12-18T01:45:27;43.70;;;30.13;;
37973;SDS011;23796;51.458;7.000;2022-12-18T01:50:33;45.47;;;29.77;;
37973;SDS011;23796;51.458;7.000;2022-12-18T01:53:17;45.65;;;29.92;;
37973;SDS011;23796;51.458;7.000;2022-12-18T01:55:50;46.05;;;30.15;;
37973;SDS011;23796;51.458;7.000;2022-12-18T01:58:18;48.67;;;30.33;;
37973;SDS011;23796;51.458;7.000;2022-12-18T02:00:46;45.33;;;29.65;;
37973;SDS011;23796;51.458;7.000;2022-12-18T02:03:12;44.90;;;30.30;;
37973;SDS011;23796;51.458;7.000;2022-12-18T02:05:47;48.83;;;31.17;;
37973;SDS011;23796;51.458;7.000;2022-12-18T02:08:41;46.30;;;28.65;;
37973;SDS011;23796;51.458;7.000;2022-12-18T02:13:51;46.50;;;29.30;;
37973;SDS011;23796;51.458;7.000;2022-12-18T02:22:24;45.77;;;30.00;;
37973;SDS011;23796;51.458;7.000;2022-12-18T02:27:48;44.83;;;29.33;;
37973;SDS011;23796;51.458;7.000;2022-12-18T02:30:18;48.97;;;30.63;;
37973;SDS011;23796;51.458;7.000;2022-12-18T02:32:48;50.43;;;29.93;;
37973;SDS011;23796;51.458;7.000;2022-12-18T02:35:19;50.50;;;29.50;;
37973;SDS011;23796;51.458;7.000;2022-12-18T02:37:49;41.78;;;28.08;;
37973;SDS011;23796;51.458;7.000;2022-12-18T02:40:23;44.30;;;27.67;;
37973;SDS011;23796;51.458;7.000;2022-12-18T02:42:51;46.33;;;28.60;;
37973;SDS011;23796;51.458;7.000;2022-12-18T02:45:17;48.57;;;29.43;;
37973;SDS011;23796;51.458;7.000;2022-12-18T02:47:43;44.47;;;28.20;;
37973;SDS011;23796;51.458;7.000;2022-12-18T02:50:22;42.57;;;29.10;;
37973;SDS011;23796;51.458;7.000;2022-12-18T02:53:17;45.63;;;28.38;;
37973;SDS011;23796;51.458;7.000;2022-12-18T03:06:22;32.88;;;21.10;;
37973;SDS011;23796;51.458;7.000;2022-12-18T03:08:54;42.50;;;27.65;;
37973;SDS011;23796;51.458;7.000;2022-12-18T03:11:24;44.47;;;28.43;;
37973;SDS011;23796;51.458;7.000;2022-12-18T03:14:11;45.07;;;29.40;;
37973;SDS011;23796;51.458;7.000;2022-12-18T03:16:41;49.40;;;29.40;;
37973;SDS011;23796;51.458;7.000;2022-12-18T03:19:08;42.43;;;27.37;;
37973;SDS011;23796;51.458;7.000;2022-12-18T03:21:45;45.97;;;28.83;;
37973;SDS011;23796;51.458;7.000;2022-12-18T03:24:13;47.95;;;29.90;;
37973;SDS011;23796;51.458;7.000;2022-12-18T03:26:40;47.30;;;30.80;;
37973;SDS011;23796;51.458;7.000;2022-12-18T03:29:11;50.47;;;33.23;;
37973;SDS011;23796;51.458;7.000;2022-12-18T03:31:42;51.10;;;33.83;;
37973;SDS011;23796;51.458;7.000;2022-12-18T03:34:15;48.17;;;30.13;;
37973;SDS011;23796;51.458;7.000;2022-12-18T03:36:46;47.53;;;31.15;;
37973;SDS011;23796;51.458;7.000;2022-12-18T03:39:12;55.77;;;35.53;;
37973;SDS011;23796;51.458;7.000;2022-12-18T03:41:43;50.13;;;31.43;;
37973;SDS011;23796;51.458;7.000;2022-12-18T03:44:20;48.10;;;30.90;;
37973;SDS011;23796;51.458;7.000;2022-12-18T03:52:40;44.73;;;29.33;;
37973;SDS011;23796;51.458;7.000;2022-12-18T03:55:16;45.03;;;28.30;;
37973;SDS011;23796;51.458;7.000;2022-12-18T03:57:43;47.47;;;30.70;;
37973;SDS011;23796;51.458;7.000;2022-12-18T04:00:11;44.80;;;29.20;;
37973;SDS011;23796;51.458;7.000;2022-12-18T04:02:49;36.42;;;24.33;;
37973;SDS011;23796;51.458;7.000;2022-12-18T04:05:18;49.97;;;31.37;;
37973;SDS011;23796;51.458;7.000;2022-12-18T04:07:45;48.60;;;31.07;;
37973;SDS011;23796;51.458;7.000;2022-12-18T04:10:14;48.93;;;29.47;;
37973;SDS011;23796;51.458;7.000;2022-12-18T04:12:41;47.60;;;30.20;;
37973;SDS011;23796;51.458;7.000;2022-12-18T04:15:07;47.60;;;29.77;;
37973;SDS011;23796;51.458;7.000;2022-12-18T04:17:33;45.50;;;28.77;;
37973;SDS011;23796;51.458;7.000;2022-12-18T04:20:06;42.27;;;28.23;;
37973;SDS011;23796;51.458;7.000;2022-12-18T04:22:35;45.57;;;28.80;;
37973;SDS011;23796;51.458;7.000;2022-12-18T04:25:03;44.73;;;29.23;;
37973;SDS011;23796;51.458;7.000;2022-12-18T04:27:31;44.83;;;30.37;;
37973;SDS011;23796;51.458;7.000;2022-12-18T04:29:57;48.67;;;29.17;;
37973;SDS011;23796;51.458;7.000;2022-12-18T04:32:25;46.27;;;31.00;;
37973;SDS011;23796;51.458;7.000;2022-12-18T04:34:50;43.83;;;28.87;;
37973;SDS011;23796;51.458;7.000;2022-12-18T04:37:18;43.20;;;28.10;;
37973;SDS011;23796;51.458;7.000;2022-12-18T04:39:44;45.67;;;29.27;;
37973;SDS011;23796;51.458;7.000;2022-12-18T04:42:12;44.10;;;28.50;;
37973;SDS011;23796;51.458;7.000;2022-12-18T04:44:38;44.93;;;28.80;;
37973;SDS011;23796;51.458;7.000;2022-12-18T04:47:05;46.70;;;29.33;;
37973;SDS011;23796;51.458;7.000;2022-12-18T04:49:32;46.83;;;29.93;;
37973;SDS011;23796;51.458;7.000;2022-12-18T04:51:58;44.17;;;27.70;;
37973;SDS011;23796;51.458;7.000;2022-12-18T04:54:23;43.60;;;27.90;;
37973;SDS011;23796;51.458;7.000;2022-12-18T04:56:49;42.57;;;27.37;;
37973;SDS011;23796;51.458;7.000;2022-12-18T04:59:14;41.63;;;26.67;;
37973;SDS011;23796;51.458;7.000;2022-12-18T05:01:40;40.80;;;25.20;;
37973;SDS011;23796;51.458;7.000;2022-12-18T05:04:05;41.23;;;25.80;;
37973;SDS011;23796;51.458;7.000;2022-12-18T05:06:33;45.97;;;26.80;;
37973;SDS011;23796;51.458;7.000;2022-12-18T05:08:59;40.23;;;24.27;;
37973;SDS011;23796;51.458;7.000;2022-12-18T05:11:26;36.13;;;24.30;;
37973;SDS011;23796;51.458;7.000;2022-12-18T05:13:57;36.60;;;24.17;;
37973;SDS011;23796;51.458;7.000;2022-12-18T05:16:23;33.27;;;22.13;;
37973;SDS011;23796;51.458;7.000;2022-12-18T05:18:49;37.47;;;22.93;;
37973;SDS011;23796;51.458;7.000;2022-12-18T05:21:14;32.90;;;21.40;;
37973;SDS011;23796;51.458;7.000;2022-12-18T05:23:40;35.10;;;21.57;;
37973;SDS011;23796;51.458;7.000;2022-12-18T05:26:06;28.97;;;19.83;;
37973;SDS011;23796;51.458;7.000;2022-12-18T05:28:33;24.10;;;14.77;;
37973;SDS011;23796;51.458;7.000;2022-12-18T05:31:02;26.53;;;16.63;;
37973;SDS011;23796;51.458;7.000;2022-12-18T05:33:30;12.30;;;7.20;;
37973;SDS011;23796;51.458;7.000;2022-12-18T05:35:57;10.40;;;4.90;;
37973;SDS011;23796;51.458;7.000;2022-12-18T05:38:28;10.25;;;6.95;;
37973;SDS011;23796;51.458;7.000;2022-12-18T05:40:55;11.82;;;7.70;;
37973;SDS011;23796;51.458;7.000;2022-12-18T05:43:24;22.25;;;14.13;;
37973;SDS011;23796;51.458;7.000;2022-12-18T05:45:51;25.10;;;14.40;;
37973;SDS011;23796;51.458;7.000;2022-12-18T05:48:17;26.52;;;16.30;;
37973;SDS011;23796;51.458;7.000;2022-12-18T05:50:44;26.52;;;16.52;;
37973;SDS011;23796;51.458;7.000;2022-12-18T05:53:11;34.75;;;21.80;;
37973;SDS011;23796;51.458;7.000;2022-12-18T05:55:38;30.17;;;17.13;;
37973;SDS011;23796;51.458;7.000;2022-12-18T05:58:05;29.58;;;19.90;;
37973;SDS011;23796;51.458;7.000;2022-12-18T06:00:35;31.10;;;19.92;;
37973;SDS011;23796;51.458;7.000;2022-12-18T06:03:04;31.52;;;20.38;;
37973;SDS011;23796;51.458;7.000;2022-12-18T06:05:34;30.27;;;19.67;;
37973;SDS011;23796;51.458;7.000;2022-12-18T06:08:03;30.15;;;18.90;;
37973;SDS011;23796;51.458;7.000;2022-12-18T06:10:30;31.88;;;20.30;;
37973;SDS011;23796;51.458;7.000;2022-12-18T06:12:58;31.30;;;21.05;;
37973;SDS011;23796;51.458;7.000;2022-12-18T06:15:26;31.90;;;22.65;;
37973;SDS011;23796;51.458;7.000;2022-12-18T06:17:54;34.58;;;22.80;;
37973;SDS011;23796;51.458;7.000;2022-12-18T06:20:20;34.35;;;22.25;;
37973;SDS011;23796;51.458;7.000;2022-12-18T06:22:46;34.85;;;22.50;;
37973;SDS011;23796;51.458;7.000;2022-12-18T06:25:13;38.03;;;23.52;;
37973;SDS011;23796;51.458;7.000;2022-12-18T06:27:39;30.92;;;19.75;;
37973;SDS011;23796;51.458;7.000;2022-12-18T06:30:07;40.03;;;24.13;;
37973;SDS011;23796;51.458;7.000;2022-12-18T06:32:36;38.45;;;24.00;;
37973;SDS011;23796;51.458;7.000;2022-12-18T06:35:02;39.85;;;24.90;;
37973;SDS011;23796;51.458;7.000;2022-12-18T06:37:30;35.28;;;22.52;;
37973;SDS011;23796;51.458;7.000;2022-12-18T06:39:56;38.67;;;25.10;;
37973;SDS011;23796;51.458;7.000;2022-12-18T06:42:22;37.40;;;25.57;;
37973;SDS011;23796;51.458;7.000;2022-12-18T06:44:51;37.15;;;23.63;;
37973;SDS011;23796;51.458;7.000;2022-12-18T06:47:16;34.25;;;23.10;;
37973;SDS011;23796;51.458;7.000;2022-12-18T06:49:43;38.53;;;24.20;;
37973;SDS011;23796;51.458;7.000;2022-12-18T06:52:11;41.30;;;25.77;;
37973;SDS011;23796;51.458;7.000;2022-12-18T06:54:39;35.97;;;23.05;;
37973;SDS011;23796;51.458;7.000;2022-12-18T06:57:04;32.50;;;22.77;;
37973;SDS011;23796;51.458;7.000;2022-12-18T06:59:32;33.80;;;21.83;;
37973;SDS011;23796;51.458;7.000;2022-12-18T07:01:58;34.40;;;22.57;;
37973;SDS011;23796;51.458;7.000;2022-12-18T07:04:27;34.57;;;22.97;;
37973;SDS011;23796;51.458;7.000;2022-12-18T07:06:58;36.70;;;23.23;;
37973;SDS011;23796;51.458;7.000;2022-12-18T07:09:24;35.67;;;23.43;;
37973;SDS011;23796;51.458;7.000;2022-12-18T07:11:50;33.57;;;22.27;;
37973;SDS011;23796;51.458;7.000;2022-12-18T07:14:15;36.22;;;22.88;;
37973;SDS011;23796;51.458;7.000;2022-12-18T07:16:41;37.95;;;23.42;;
37973;SDS011;23796;51.458;7.000;2022-12-18T07:19:09;36.87;;;25.07;;
37973;SDS011;23796;51.458;7.000;2022-12-18T07:21:37;34.55;;;22.85;;
37973;SDS011;23796;51.458;7.000;2022-12-18T07:24:05;40.53;;;25.10;;
37973;SDS011;23796;51.458;7.000;2022-12-18T07:26:31;34.20;;;21.53;;
37973;SDS011;23796;51.458;7.000;2022-12-18T07:28:57;36.83;;;22.92;;
37973;SDS011;23796;51.458;7.000;2022-12-18T07:31:23;31.43;;;19.97;;
37973;SDS011;23796;51.458;7.000;2022-12-18T07:33:49;30.10;;;19.50;;
37973;SDS011;23796;51.458;7.000;2022-12-18T07:36:16;31.33;;;20.27;;
37973;SDS011;23796;51.458;7.000;2022-12-18T07:38:42;30.17;;;18.93;;
37973;SDS011;23796;51.458;7.000;2022-12-18T07:41:11;30.33;;;18.63;;
37973;SDS011;23796;51.458;7.000;2022-12-18T07:43:37;31.50;;;19.37;;
37973;SDS011;23796;51.458;7.000;2022-12-18T07:46:04;29.67;;;20.40;;
37973;SDS011;23796;51.458;7.000;2022-12-18T07:48:30;31.60;;;20.00;;
37973;SDS011;23796;51.458;7.000;2022-12-18T07:51:02;28.53;;;17.67;;
37973;SDS011;23796;51.458;7.000;2022-12-18T07:53:30;26.57;;;17.50;;
37973;SDS011;23796;51.458;7.000;2022-12-18T07:56:00;29.93;;;17.90;;
37973;SDS011;23796;51.458;7.000;2022-12-18T07:58:28;25.48;;;16.40;;
37973;SDS011;23796;51.458;7.000;2022-12-18T08:00:54;22.60;;;15.33;;
37973;SDS011;23796;51.458;7.000;2022-12-18T08:03:27;22.93;;;15.60;;
37973;SDS011;23796;51.458;7.000;2022-12-18T08:05:57;25.10;;;15.83;;
37973;SDS011;23796;51.458;7.000;2022-12-18T08:08:24;23.00;;;15.40;;
37973;SDS011;23796;51.458;7.000;2022-12-18T08:10:52;23.47;;;14.93;;
37973;SDS011;23796;51.458;7.000;2022-12-18T08:13:20;24.53;;;14.73;;
37973;SDS011;23796;51.458;7.000;2022-12-18T08:15:46;21.67;;;14.27;;
37973;SDS011;23796;51.458;7.000;2022-12-18T08:18:11;25.53;;;15.97;;
37973;SDS011;23796;51.458;7.000;2022-12-18T08:20:37;21.93;;;14.90;;
37973;SDS011;23796;51.458;7.000;2022-12-18T08:23:02;21.73;;;14.65;;
37973;SDS011;23796;51.458;7.000;2022-12-18T08:25:28;22.30;;;14.27;;
37973;SDS011;23796;51.458;7.000;2022-12-18T08:27:59;21.10;;;13.80;;
37973;SDS011;23796;51.458;7.000;2022-12-18T08:30:29;21.15;;;14.38;;
37973;SDS011;23796;51.458;7.000;2022-12-18T08:32:55;23.80;;;15.52;;
37973;SDS011;23796;51.458;7.000;2022-12-18T08:35:20;22.15;;;14.70;;
37973;SDS011;23796;51.458;7.000;2022-12-18T08:37:46;20.77;;;13.65;;
37973;SDS011;23796;51.458;7.000;2022-12-18T08:40:14;21.95;;;15.30;;
37973;SDS011;23796;51.458;7.000;2022-12-18T08:42:40;22.25;;;14.20;;
37973;SDS011;23796;51.458;7.000;2022-12-18T08:45:34;25.23;;;16.35;;
37973;SDS011;23796;51.458;7.000;2022-12-18T08:48:00;24.13;;;16.75;;
37973;SDS011;23796;51.458;7.000;2022-12-18T08:50:28;26.33;;;16.85;;
37973;SDS011;23796;51.458;7.000;2022-12-18T08:52:54;22.05;;;16.17;;
37973;SDS011;23796;51.458;7.000;2022-12-18T08:55:19;26.52;;;16.40;;
37973;SDS011;23796;51.458;7.000;2022-12-18T08:57:47;23.20;;;13.85;;
37973;SDS011;23796;51.458;7.000;2022-12-18T09:02:43;22.45;;;14.68;;
37973;SDS011;23796;51.458;7.000;2022-12-18T09:05:09;21.88;;;14.68;;
37973;SDS011;23796;51.458;7.000;2022-12-18T09:07:37;19.85;;;13.57;;
37973;SDS011;23796;51.458;7.000;2022-12-18T09:10:05;23.10;;;14.38;;
37973;SDS011;23796;51.458;7.000;2022-12-18T09:12:31;16.58;;;9.80;;
37973;SDS011;23796;51.458;7.000;2022-12-18T09:14:59;17.67;;;11.43;;
37973;SDS011;23796;51.458;7.000;2022-12-18T09:17:27;16.52;;;9.07;;
37973;SDS011;23796;51.458;7.000;2022-12-18T09:19:54;16.65;;;10.90;;
37973;SDS011;23796;51.458;7.000;2022-12-18T09:22:22;13.68;;;9.15;;
37973;SDS011;23796;51.458;7.000;2022-12-18T09:24:48;8.00;;;4.97;;
37973;SDS011;23796;51.458;7.000;2022-12-18T09:27:16;6.35;;;2.55;;
37973;SDS011;23796;51.458;7.000;2022-12-18T09:29:42;4.85;;;2.42;;
37973;SDS011;23796;51.458;7.000;2022-12-18T09:32:10;5.32;;;2.08;;
37973;SDS011;23796;51.458;7.000;2022-12-18T09:34:35;5.80;;;2.80;;
37973;SDS011;23796;51.458;7.000;2022-12-18T09:37:03;4.13;;;2.38;;
37973;SDS011;23796;51.458;7.000;2022-12-18T09:39:29;6.60;;;1.92;;
37973;SDS011;23796;51.458;7.000;2022-12-18T09:41:55;5.00;;;2.45;;
37973;SDS011;23796;51.458;7.000;2022-12-18T09:49:23;5.82;;;2.60;;
37973;SDS011;23796;51.458;7.000;2022-12-18T09:52:02;4.45;;;2.42;;
37973;SDS011;23796;51.458;7.000;2022-12-18T09:54:43;4.32;;;1.92;;
37973;SDS011;23796;51.458;7.000;2022-12-18T09:57:17;4.20;;;2.08;;
37973;SDS011;23796;51.458;7.000;2022-12-18T10:00:14;5.57;;;2.70;;
37973;SDS011;23796;51.458;7.000;2022-12-18T10:02:35;5.07;;;2.75;;
37973;SDS011;23796;51.458;7.000;2022-12-18T10:18:30;5.28;;;2.17;;
37973;SDS011;23796;51.458;7.000;2022-12-18T10:21:51;4.95;;;2.20;;
37973;SDS011;23796;51.458;7.000;2022-12-18T10:26:33;4.53;;;2.58;;
37973;SDS011;23796;51.458;7.000;2022-12-18T10:28:59;4.88;;;2.15;;
37973;SDS011;23796;51.458;7.000;2022-12-18T10:31:25;5.82;;;2.38;;
37973;SDS011;23796;51.458;7.000;2022-12-18T10:33:53;6.10;;;2.80;;
37973;SDS011;23796;51.458;7.000;2022-12-18T10:36:20;5.18;;;2.42;;
37973;SDS011;23796;51.458;7.000;2022-12-18T10:38:48;7.38;;;3.13;;
37973;SDS011;23796;51.458;7.000;2022-12-18T10:43:43;5.35;;;2.53;;
37973;SDS011;23796;51.458;7.000;2022-12-18T10:51:04;5.80;;;3.00;;
37973;SDS011;23796;51.458;7.000;2022-12-18T10:53:31;6.30;;;2.92;;
37973;SDS011;23796;51.458;7.000;2022-12-18T10:55:59;7.32;;;2.58;;
37973;SDS011;23796;51.458;7.000;2022-12-18T10:58:34;5.80;;;3.10;;
37973;SDS011;23796;51.458;7.000;2022-12-18T11:03:42;5.75;;;3.00;;
37973;SDS011;23796;51.458;7.000;2022-12-18T11:06:23;8.52;;;3.20;;
37973;SDS011;23796;51.458;7.000;2022-12-18T11:08:57;5.82;;;3.00;;
37973;SDS011;23796;51.458;7.000;2022-12-18T11:11:33;5.78;;;2.70;;
37973;SDS011;23796;51.458;7.000;2022-12-18T11:14:18;5.25;;;2.70;;
37973;SDS011;23796;51.458;7.000;2022-12-18T11:16:49;4.50;;;2.50;;
37973;SDS011;23796;51.458;7.000;2022-12-18T11:19:32;7.35;;;3.33;;
37973;SDS011;23796;51.458;7.000;2022-12-18T11:22:19;5.65;;;2.72;;
37973;SDS011;23796;51.458;7.000;2022-12-18T11:24:58;6.22;;;2.88;;
37973;SDS011;23796;51.458;7.000;2022-12-18T11:27:30;7.50;;;3.00;;
37973;SDS011;23796;51.458;7.000;2022-12-18T11:30:10;4.97;;;2.60;;
37973;SDS011;23796;51.458;7.000;2022-12-18T11:33:27;6.97;;;2.83;;
37973;SDS011;23796;51.458;7.000;2022-12-18T11:35:52;5.15;;;2.50;;
37973;SDS011;23796;51.458;7.000;2022-12-18T11:38:25;9.70;;;3.13;;
37973;SDS011;23796;51.458;7.000;2022-12-18T11:44:01;6.03;;;3.08;;
37973;SDS011;23796;51.458;7.000;2022-12-18T11:46:39;8.50;;;2.72;;
37973;SDS011;23796;51.458;7.000;2022-12-18T11:51:55;6.75;;;2.65;;
37973;SDS011;23796;51.458;7.000;2022-12-18T11:54:34;9.90;;;3.30;;
37973;SDS011;23796;51.458;7.000;2022-12-18T12:05:31;7.47;;;3.28;;
37973;SDS011;23796;51.458;7.000;2022-12-18T12:10:40;15.88;;;10.23;;
37973;SDS011;23796;51.458;7.000;2022-12-18T12:18:48;20.60;;;15.40;;
37973;SDS011;23796;51.458;7.000;2022-12-18T12:27:45;22.27;;;15.80;;
37973;SDS011;23796;51.458;7.000;2022-12-18T12:35:29;21.10;;;15.90;;
37973;SDS011;23796;51.458;7.000;2022-12-18T12:40:46;14.60;;;10.82;;
37973;SDS011;23796;51.458;7.000;2022-12-18T12:45:55;5.97;;;3.60;;
37973;SDS011;23796;51.458;7.000;2022-12-18T12:51:00;8.82;;;3.30;;
37973;SDS011;23796;51.458;7.000;2022-12-18T12:53:30;22.45;;;10.07;;
37973;SDS011;23796;51.458;7.000;2022-12-18T12:55:59;13.52;;;8.38;;
37973;SDS011;23796;51.458;7.000;2022-12-18T12:58:30;14.38;;;7.90;;
37973;SDS011;23796;51.458;7.000;2022-12-18T13:01:03;20.13;;;11.75;;
37973;SDS011;23796;51.458;7.000;2022-12-18T13:03:43;17.65;;;11.35;;
37973;SDS011;23796;51.458;7.000;2022-12-18T13:06:33;25.23;;;11.52;;
37973;SDS011;23796;51.458;7.000;2022-12-18T13:09:07;15.85;;;10.07;;
37973;SDS011;23796;51.458;7.000;2022-12-18T13:20:03;18.08;;;9.15;;
37973;SDS011;23796;51.458;7.000;2022-12-18T13:22:34;10.85;;;6.53;;
37973;SDS011;23796;51.458;7.000;2022-12-18T13:25:00;10.25;;;5.10;;
37973;SDS011;23796;51.458;7.000;2022-12-18T13:40:53;8.43;;;4.40;;
37973;SDS011;23796;51.458;7.000;2022-12-18T13:43:26;7.70;;;4.50;;
37973;SDS011;23796;51.458;7.000;2022-12-18T13:45:59;8.35;;;4.55;;
37973;SDS011;23796;51.458;7.000;2022-12-18T13:48:55;8.57;;;4.32;;
37973;SDS011;23796;51.458;7.000;2022-12-18T13:51:21;8.98;;;5.00;;
37973;SDS011;23796;51.458;7.000;2022-12-18T13:53:52;10.75;;;4.65;;
37973;SDS011;23796;51.458;7.000;2022-12-18T13:56:22;8.98;;;5.18;;
37973;SDS011;23796;51.458;7.000;2022-12-18T14:01:57;14.05;;;5.00;;
37973;SDS011;23796;51.458;7.000;2022-12-18T14:04:30;8.75;;;4.85;;
37973;SDS011;23796;51.458;7.000;2022-12-18T14:09:36;7.88;;;4.75;;
37973;SDS011;23796;51.458;7.000;2022-12-18T14:12:11;8.88;;;5.00;;
37973;SDS011;23796;51.458;7.000;2022-12-18T14:15:00;11.07;;;5.47;;
37973;SDS011;23796;51.458;7.000;2022-12-18T14:17:28;9.75;;;4.95;;
37973;SDS011;23796;51.458;7.000;2022-12-18T14:19:58;9.93;;;5.07;;
37973;SDS011;23796;51.458;7.000;2022-12-18T14:22:25;8.05;;;4.90;;
37973;SDS011;23796;51.458;7.000;2022-12-18T14:27:41;10.88;;;5.65;;
37973;SDS011;23796;51.458;7.000;2022-12-18T14:30:27;7.90;;;5.57;;
37973;SDS011;23796;51.458;7.000;2022-12-18T14:35:39;9.25;;;4.68;;
37973;SDS011;23796;51.458;7.000;2022-12-18T14:40:41;9.13;;;5.00;;
37973;SDS011;23796;51.458;7.000;2022-12-18T14:43:10;10.40;;;6.05;;
37973;SDS011;23796;51.458;7.000;2022-12-18T14:45:39;8.98;;;5.40;;
37973;SDS011;23796;51.458;7.000;2022-12-18T14:50:40;8.93;;;5.75;;
37973;SDS011;23796;51.458;7.000;2022-12-18T14:53:18;10.00;;;5.68;;
37973;SDS011;23796;51.458;7.000;2022-12-18T14:55:48;8.48;;;5.40;;
37973;SDS011;23796;51.458;7.000;2022-12-18T14:58:15;10.90;;;6.90;;
37973;SDS011;23796;51.458;7.000;2022-12-18T15:00:42;10.27;;;6.57;;
37973;SDS011;23796;51.458;7.000;2022-12-18T15:03:08;8.43;;;5.95;;
37973;SDS011;23796;51.458;7.000;2022-12-18T15:05:34;7.93;;;5.13;;
37973;SDS011;23796;51.458;7.000;2022-12-18T15:08:01;9.73;;;6.60;;
37973;SDS011;23796;51.458;7.000;2022-12-18T15:10:28;9.43;;;5.57;;
37973;SDS011;23796;51.458;7.000;2022-12-18T15:25:43;10.52;;;6.80;;
37973;SDS011;23796;51.458;7.000;2022-12-18T15:34:22;9.40;;;6.40;;
37973;SDS011;23796;51.458;7.000;2022-12-18T15:36:24;10.90;;;7.05;;
37973;SDS011;23796;51.458;7.000;2022-12-18T15:38:56;11.18;;;7.22;;
37973;SDS011;23796;51.458;7.000;2022-12-18T15:41:23;13.95;;;6.80;;
37973;SDS011;23796;51.458;7.000;2022-12-18T15:43:49;10.77;;;7.70;;
37973;SDS011;23796;51.458;7.000;2022-12-18T15:46:20;10.88;;;7.75;;
37973;SDS011;23796;51.458;7.000;2022-12-18T15:48:47;11.77;;;7.72;;
37973;SDS011;23796;51.458;7.000;2022-12-18T15:51:16;10.73;;;7.55;;
37973;SDS011;23796;51.458;7.000;2022-12-18T15:56:15;10.82;;;7.13;;
37973;SDS011;23796;51.458;7.000;2022-12-18T15:59:00;11.05;;;7.45;;
37973;SDS011;23796;51.458;7.000;2022-12-18T16:01:33;13.05;;;8.77;;
37973;SDS011;23796;51.458;7.000;2022-12-18T16:03:59;11.10;;;7.55;;
37973;SDS011;23796;51.458;7.000;2022-12-18T16:06:24;10.80;;;8.20;;
37973;SDS011;23796;51.458;7.000;2022-12-18T16:08:52;11.40;;;7.00;;
37973;SDS011;23796;51.458;7.000;2022-12-18T16:14:03;10.73;;;7.45;;
37973;SDS011;23796;51.458;7.000;2022-12-18T16:16:30;13.48;;;8.32;;
37973;SDS011;23796;51.458;7.000;2022-12-18T16:18:58;10.38;;;7.35;;
37973;SDS011;23796;51.458;7.000;2022-12-18T16:21:26;12.35;;;7.75;;
37973;SDS011;23796;51.458;7.000;2022-12-18T16:23:51;12.40;;;7.93;;
37973;SDS011;23796;51.458;7.000;2022-12-18T16:26:17;13.10;;;8.45;;
37973;SDS011;23796;51.458;7.000;2022-12-18T16:28:42;11.98;;;7.90;;
37973;SDS011;23796;51.458;7.000;2022-12-18T16:31:08;12.00;;;7.70;;
37973;SDS011;23796;51.458;7.000;2022-12-18T16:33:33;11.65;;;7.85;;
37973;SDS011;23796;51.458;7.000;2022-12-18T16:36:01;11.85;;;8.85;;
37973;SDS011;23796;51.458;7.000;2022-12-18T16:38:27;12.95;;;7.90;;
37973;SDS011;23796;51.458;7.000;2022-12-18T16:40:52;11.98;;;9.00;;
37973;SDS011;23796;51.458;7.000;2022-12-18T16:43:37;11.13;;;7.60;;
37973;SDS011;23796;51.458;7.000;2022-12-18T16:46:02;11.35;;;7.80;;
37973;SDS011;23796;51.458;7.000;2022-12-18T16:48:30;13.25;;;8.80;;
37973;SDS011;23796;51.458;7.000;2022-12-18T16:50:59;13.85;;;8.85;;
37973;SDS011;23796;51.458;7.000;2022-12-18T16:53:30;11.82;;;8.98;;
37973;SDS011;23796;51.458;7.000;2022-12-18T16:55:59;14.30;;;9.40;;
37973;SDS011;23796;51.458;7.000;2022-12-18T16:58:25;12.10;;;8.90;;
37973;SDS011;23796;51.458;7.000;2022-12-18T17:00:50;10.98;;;7.90;;
37973;SDS011;23796;51.458;7.000;2022-12-18T17:03:21;14.27;;;9.43;;
37973;SDS011;23796;51.458;7.000;2022-12-18T17:05:46;17.00;;;9.50;;
37973;SDS011;23796;51.458;7.000;2022-12-18T17:08:12;12.60;;;9.48;;
37973;SDS011;23796;51.458;7.000;2022-12-18T17:10:38;13.45;;;8.85;;
37973;SDS011;23796;51.458;7.000;2022-12-18T17:13:05;13.63;;;10.00;;
37973;SDS011;23796;51.458;7.000;2022-12-18T17:15:33;15.77;;;10.85;;
37973;SDS011;23796;51.458;7.000;2022-12-18T17:18:00;15.38;;;10.10;;
37973;SDS011;23796;51.458;7.000;2022-12-18T17:20:29;15.77;;;10.50;;
37973;SDS011;23796;51.458;7.000;2022-12-18T17:22:57;14.20;;;9.70;;
37973;SDS011;23796;51.458;7.000;2022-12-18T17:25:22;17.33;;;9.82;;
37973;SDS011;23796;51.458;7.000;2022-12-18T17:27:52;14.05;;;9.57;;
37973;SDS011;23796;51.458;7.000;2022-12-18T17:30:18;13.27;;;10.18;;